createdAt,value
2023-04-23T00:00:21.762Z,5.42
2023-04-23T00:03:27.778Z,5.17
2023-04-23T00:06:34.598Z,6.85
2023-04-23T00:09:41.625Z,9.58
2023-04-23T00:12:46.762Z,6.20
2023-04-23T00:15:52.961Z,9.63
2023-04-23T00:18:59.696Z,6.97
2023-04-23T00:22:05.438Z,7.50
2023-04-23T00:25:10.002Z,7.25
2023-04-23T00:28:16.100Z,8.65
2023-04-23T00:31:22.190Z,8.63
2023-04-23T00:34:27.914Z,9.35
2023-04-23T00:37:33.668Z,11.33
2023-04-23T00:40:39.452Z,6.80
2023-04-23T00:43:47.067Z,5.58
2023-04-23T00:46:52.857Z,4.58
2023-04-23T00:49:59.216Z,4.37
2023-04-23T00:53:05.261Z,5.47
2023-04-23T00:56:10.461Z,5.87
2023-04-23T00:59:15.606Z,6.20
2023-04-23T01:02:23.114Z,6.30
2023-04-23T01:05:28.232Z,6.42
2023-04-23T01:08:34.139Z,7.40
2023-04-23T01:11:39.726Z,7.08
2023-04-23T01:14:45.053Z,7.20
2023-04-23T01:17:51.284Z,8.93
2023-04-23T01:20:58.271Z,7.15
2023-04-23T01:24:03.842Z,6.17
2023-04-23T01:27:09.163Z,6.30
2023-04-23T01:30:13.980Z,6.10
2023-04-23T01:33:20.107Z,6.97
2023-04-23T01:36:25.652Z,7.33
2023-04-23T01:39:31.577Z,6.83
2023-04-23T01:42:37.179Z,5.72
2023-04-23T01:45:43.118Z,6.60
2023-04-23T01:48:42.104Z,5.67
2023-04-23T01:51:47.609Z,4.93
2023-04-23T01:54:53.301Z,5.67
2023-04-23T01:58:00.764Z,4.95
2023-04-23T02:01:07.445Z,5.50
2023-04-23T02:04:13.006Z,5.72
2023-04-23T02:07:19.897Z,5.30
2023-04-23T02:10:25.779Z,5.62
2023-04-23T02:13:31.619Z,7.97
2023-04-23T02:16:38.305Z,9.63
2023-04-23T02:19:37.339Z,9.55
2023-04-23T02:22:43.193Z,8.33
2023-04-23T02:25:49.715Z,6.60
2023-04-23T02:28:56.113Z,6.08
2023-04-23T02:31:54.393Z,5.72
2023-04-23T02:35:00.709Z,5.58
2023-04-23T02:38:07.774Z,5.75
2023-04-23T02:41:13.345Z,5.00
2023-04-23T02:44:13.479Z,4.65
2023-04-23T02:47:00.494Z,5.50
2023-04-23T02:49:53.076Z,4.92
2023-04-23T02:52:39.178Z,4.67
2023-04-23T02:55:32.628Z,5.10
2023-04-23T02:58:24.914Z,5.10
2023-04-23T03:01:31.596Z,4.67
2023-04-23T03:04:38.968Z,4.85
2023-04-23T03:07:45.274Z,4.65
2023-04-23T03:10:51.692Z,4.37
2023-04-23T03:13:57.418Z,4.90
2023-04-23T03:17:02.965Z,4.58
2023-04-23T03:20:08.200Z,4.30
2023-04-23T03:23:14.237Z,6.20
2023-04-23T03:26:19.940Z,7.05
2023-04-23T03:29:25.248Z,5.67
2023-04-23T03:32:31.838Z,6.55
2023-04-23T03:35:38.605Z,6.00
2023-04-23T03:38:47.488Z,4.50
2023-04-23T03:41:54.405Z,7.58
2023-04-23T03:45:01.406Z,6.95
2023-04-23T03:48:07.413Z,7.22
2023-04-23T03:51:14.395Z,7.33
2023-04-23T03:54:20.494Z,9.35
2023-04-23T03:57:32.608Z,8.73
2023-04-23T04:00:57.518Z,7.65
2023-04-23T04:03:55.882Z,6.10
2023-04-23T04:07:03.518Z,6.35
2023-04-23T04:10:10.109Z,6.28
2023-04-23T04:13:15.935Z,5.83
2023-04-23T04:16:21.769Z,5.60
2023-04-23T04:19:27.113Z,5.15
2023-04-23T04:22:32.760Z,5.83
2023-04-23T04:25:38.732Z,5.47
2023-04-23T04:28:44.920Z,5.78
2023-04-23T04:31:51.081Z,6.28
2023-04-23T04:34:57.242Z,6.10
2023-04-23T04:38:02.829Z,5.62
2023-04-23T04:41:10.352Z,5.05
2023-04-23T04:44:16.058Z,5.20
2023-04-23T04:47:22.847Z,4.80
2023-04-23T04:50:29.676Z,5.12
2023-04-23T04:53:35.388Z,4.92
2023-04-23T04:56:41.206Z,5.75
2023-04-23T04:59:46.933Z,6.70
2023-04-23T05:02:53.202Z,6.15
2023-04-23T05:06:01.727Z,7.78
2023-04-23T05:09:07.212Z,6.80
2023-04-23T05:12:14.383Z,6.37
2023-04-23T05:15:22.436Z,6.70
2023-04-23T05:18:28.763Z,7.15
2023-04-23T05:21:34.976Z,7.67
2023-04-23T05:24:41.509Z,7.53
2023-04-23T05:27:46.652Z,10.68
2023-04-23T05:30:52.267Z,12.68
2023-04-23T05:33:58.800Z,12.78
2023-04-23T05:37:05.085Z,12.63
2023-04-23T05:40:10.970Z,12.13
2023-04-23T05:43:16.136Z,10.32
2023-04-23T05:46:22.202Z,9.00
2023-04-23T05:49:27.773Z,10.65
2023-04-23T05:52:36.820Z,10.35
2023-04-23T05:55:36.688Z,9.85
2023-04-23T05:58:42.984Z,9.70
2023-04-23T06:01:48.345Z,9.45
2023-04-23T06:04:47.695Z,9.45
2023-04-23T06:07:53.578Z,9.68
2023-04-23T06:11:00.527Z,8.40
2023-04-23T06:14:06.096Z,9.50
2023-04-23T06:17:10.589Z,9.90
2023-04-23T06:20:18.039Z,8.55
2023-04-23T06:23:23.982Z,8.10
2023-04-23T06:26:30.717Z,7.28
2023-04-23T06:29:38.672Z,7.08
2023-04-23T06:32:45.723Z,6.58
2023-04-23T06:35:50.998Z,6.58
2023-04-23T06:38:56.950Z,5.90
2023-04-23T06:42:01.971Z,5.83
2023-04-23T06:45:11.805Z,5.80
2023-04-23T06:48:17.443Z,5.95
2023-04-23T06:51:23.742Z,6.42
2023-04-23T06:54:29.839Z,5.70
2023-04-23T06:57:34.548Z,6.30
2023-04-23T07:00:39.212Z,5.25
2023-04-23T07:03:45.242Z,5.47
2023-04-23T07:06:50.514Z,6.05
2023-04-23T07:09:56.745Z,5.87
2023-04-23T07:13:02.356Z,5.78
2023-04-23T07:16:07.538Z,6.03
2023-04-23T07:19:12.724Z,7.00
2023-04-23T07:22:18.005Z,6.75
2023-04-23T07:25:23.373Z,9.13
2023-04-23T07:28:29.131Z,7.80
2023-04-23T07:31:35.599Z,7.72
2023-04-23T07:34:44.401Z,6.60
2023-04-23T07:37:50.909Z,7.22
2023-04-23T07:40:49.750Z,7.58
2023-04-23T07:43:55.778Z,7.50
2023-04-23T07:47:02.483Z,7.80
2023-04-23T07:50:07.793Z,6.12
2023-04-23T07:53:13.694Z,6.37
2023-04-23T07:56:19.124Z,6.55
2023-04-23T07:59:25.412Z,6.70
2023-04-23T08:02:32.488Z,6.20
2023-04-23T08:05:34.076Z,7.75
2023-04-23T08:08:21.446Z,7.28
2023-04-23T08:11:16.775Z,7.33
2023-04-23T08:14:09.285Z,7.70
2023-04-23T08:17:14.361Z,6.20
2023-04-23T08:20:20.705Z,7.20
2023-04-23T08:23:26.119Z,7.53
2023-04-23T08:26:31.849Z,6.33
2023-04-23T08:29:37.302Z,4.87
2023-04-23T08:32:43.877Z,4.60
2023-04-23T08:35:49.335Z,3.90
2023-04-23T08:38:55.318Z,4.30
2023-04-23T08:42:01.794Z,5.53
2023-04-23T08:45:07.249Z,3.45
2023-04-23T08:48:14.584Z,4.47
2023-04-23T08:51:19.885Z,4.65
2023-04-23T08:54:25.419Z,3.85
2023-04-23T08:57:31.794Z,3.90
2023-04-23T09:00:37.736Z,4.40
2023-04-23T09:03:43.312Z,4.00
2023-04-23T09:06:50.857Z,3.52
2023-04-23T09:09:56.035Z,3.25
2023-04-23T09:13:02.453Z,4.05
2023-04-23T09:16:07.981Z,2.80
2023-04-23T09:19:14.220Z,2.50
2023-04-23T09:22:19.382Z,2.90
2023-04-23T09:25:24.862Z,2.55
2023-04-23T09:28:30.081Z,2.42
2023-04-23T09:31:36.407Z,2.72
2023-04-23T09:34:41.505Z,2.30
2023-04-23T09:37:41.786Z,2.65
2023-04-23T09:40:46.690Z,3.42
2023-04-23T09:43:52.581Z,2.65
2023-04-23T09:46:59.286Z,2.95
2023-04-23T09:50:04.693Z,2.50
2023-04-23T09:53:10.665Z,3.00
2023-04-23T09:56:16.357Z,2.87
2023-04-23T09:59:47.052Z,3.58
2023-04-23T10:02:44.620Z,3.10
2023-04-23T10:06:01.073Z,3.37
2023-04-23T10:09:03.528Z,3.00
2023-04-23T10:12:27.790Z,3.05
2023-04-23T10:15:23.506Z,2.80
2023-04-23T10:18:33.186Z,3.08
2023-04-23T10:21:52.224Z,3.23
2023-04-23T10:24:49.813Z,2.40
2023-04-23T10:27:58.151Z,3.33
2023-04-23T10:31:03.604Z,2.72
2023-04-23T10:34:10.912Z,2.50
2023-04-23T10:37:16.566Z,2.70
2023-04-23T10:40:28.243Z,2.60
2023-04-23T10:43:34.250Z,2.77
2023-04-23T10:46:49.586Z,3.67
2023-04-23T10:49:55.700Z,3.25
2023-04-23T10:52:57.378Z,2.60
2023-04-23T10:56:03.236Z,3.22
2023-04-23T10:59:08.141Z,2.83
2023-04-23T11:02:15.881Z,3.02
2023-04-23T11:05:23.730Z,3.33
2023-04-23T11:08:29.528Z,2.72
2023-04-23T11:11:35.815Z,3.92
2023-04-23T11:15:03.690Z,3.52
2023-04-23T11:18:12.812Z,3.00
2023-04-23T11:21:20.749Z,3.27
2023-04-23T11:24:26.406Z,3.22
2023-04-23T11:27:32.373Z,3.45
2023-04-23T11:30:44.922Z,3.27
2023-04-23T11:33:51.503Z,3.17
2023-04-23T11:36:56.766Z,3.10
2023-04-23T11:40:03.587Z,2.87
2023-04-23T11:43:11.511Z,3.77
2023-04-23T11:46:16.907Z,2.85
2023-04-23T11:49:22.428Z,3.45
2023-04-23T11:52:28.709Z,2.75
2023-04-23T11:55:33.931Z,3.05
2023-04-23T11:58:39.381Z,2.40
2023-04-23T12:02:00.972Z,2.75
2023-04-23T12:05:06.626Z,2.30
2023-04-23T12:08:25.126Z,2.72
2023-04-23T12:11:31.108Z,4.12
2023-04-23T12:14:42.330Z,2.95
2023-04-23T12:17:48.328Z,3.17
2023-04-23T12:20:54.527Z,2.85
2023-04-23T12:23:59.496Z,2.50
2023-04-23T12:27:09.256Z,2.90
2023-04-23T12:30:18.174Z,3.50
2023-04-23T12:33:25.512Z,3.02
2023-04-23T12:36:31.176Z,2.50
2023-04-23T12:39:47.947Z,2.58
2023-04-23T12:42:53.215Z,3.45
2023-04-23T12:45:59.612Z,3.20
2023-04-23T12:49:05.088Z,2.02
2023-04-23T12:52:13.565Z,2.70
2023-04-23T12:55:18.790Z,3.12
2023-04-23T12:58:24.502Z,2.62
2023-04-23T13:01:30.104Z,3.45
2023-04-23T13:04:35.773Z,2.42
2023-04-23T13:07:41.896Z,2.17
2023-04-23T13:10:47.577Z,2.20
2023-04-23T13:13:53.387Z,2.02
2023-04-23T13:16:59.573Z,1.85
2023-04-23T13:20:05.768Z,2.08
2023-04-23T13:23:11.450Z,2.10
2023-04-23T13:26:18.823Z,1.42
2023-04-23T13:29:24.392Z,2.30
2023-04-23T13:32:35.942Z,2.30
2023-04-23T13:35:43.968Z,1.55
2023-04-23T13:38:50.684Z,1.85
2023-04-23T13:42:08.818Z,1.40
2023-04-23T13:45:04.931Z,1.40
2023-04-23T13:48:12.304Z,1.30
2023-04-23T13:51:33.258Z,1.72
2023-04-23T13:54:24.524Z,1.67
2023-04-23T13:57:30.472Z,1.62
2023-04-23T14:00:36.898Z,2.08
2023-04-23T14:03:42.107Z,1.70
2023-04-23T14:06:47.924Z,2.05
2023-04-23T14:09:54.303Z,2.10
2023-04-23T14:12:59.930Z,2.45
2023-04-23T14:16:04.672Z,2.20
2023-04-23T14:19:10.547Z,1.85
2023-04-23T14:22:16.510Z,2.00
2023-04-23T14:25:23.364Z,1.95
2023-04-23T14:28:54.587Z,1.95
2023-04-23T14:32:00.421Z,1.60
2023-04-23T14:35:06.220Z,1.72
2023-04-23T14:38:11.063Z,1.35
2023-04-23T14:41:17.088Z,1.62
2023-04-23T14:44:22.298Z,1.72
2023-04-23T14:47:27.322Z,1.50
2023-04-23T14:50:32.603Z,1.45
2023-04-23T14:53:39.516Z,1.45
2023-04-23T14:56:38.296Z,1.57
2023-04-23T14:59:44.554Z,1.85
2023-04-23T15:02:51.853Z,2.40
2023-04-23T15:05:59.778Z,1.85
2023-04-23T15:09:06.477Z,1.77
2023-04-23T15:12:13.340Z,1.80
2023-04-23T15:15:25.491Z,1.57
2023-04-23T15:18:28.500Z,2.12
2023-04-23T15:21:34.219Z,12.88
2023-04-23T15:24:39.618Z,6.55
2023-04-23T15:27:45.840Z,2.33
2023-04-23T15:30:54.995Z,1.95
2023-04-23T15:34:01.148Z,1.62
2023-04-23T15:37:06.744Z,2.90
2023-04-23T15:40:14.587Z,2.85
2023-04-23T15:43:20.573Z,1.65
2023-04-23T15:46:26.690Z,1.92
2023-04-23T15:49:32.416Z,1.30
2023-04-23T15:52:38.585Z,1.70
2023-04-23T15:55:46.202Z,1.90
2023-04-23T15:58:52.709Z,1.47
2023-04-23T16:01:59.453Z,1.77
2023-04-23T16:05:05.648Z,2.10
2023-04-23T16:08:11.468Z,1.92
2023-04-23T16:11:20.156Z,2.65
2023-04-23T16:14:25.445Z,2.30
2023-04-23T16:17:33.883Z,2.37
2023-04-23T16:20:40.558Z,2.30
2023-04-23T16:23:46.292Z,2.40
2023-04-23T16:26:57.962Z,2.05
2023-04-23T16:29:58.702Z,2.27
2023-04-23T16:33:04.248Z,2.05
2023-04-23T16:36:09.429Z,2.22
2023-04-23T16:39:14.927Z,2.20
2023-04-23T16:42:23.148Z,3.60
2023-04-23T16:45:29.360Z,2.98
2023-04-23T16:48:29.226Z,3.25
2023-04-23T16:51:36.217Z,3.33
2023-04-23T16:54:43.278Z,2.98
2023-04-23T16:57:51.739Z,3.67
2023-04-23T17:00:56.671Z,3.42
2023-04-23T17:04:03.120Z,2.98
2023-04-23T17:07:10.390Z,3.67
2023-04-23T17:10:16.886Z,3.90
2023-04-23T17:13:17.166Z,4.00
2023-04-23T17:16:10.781Z,3.70
2023-04-23T17:19:10.161Z,3.83
2023-04-23T17:22:17.944Z,4.15
2023-04-23T17:25:24.413Z,4.05
2023-04-23T17:28:30.509Z,3.87
2023-04-23T17:31:37.718Z,3.55
2023-04-23T17:34:43.467Z,3.42
2023-04-23T17:37:49.392Z,3.85
2023-04-23T17:40:54.952Z,2.80
2023-04-23T17:44:01.678Z,4.42
2023-04-23T17:47:06.446Z,3.55
2023-04-23T17:50:13.370Z,2.67
2023-04-23T17:53:19.376Z,3.50
2023-04-23T17:56:24.467Z,4.10
2023-04-23T17:59:30.070Z,4.70
2023-04-23T18:02:29.340Z,3.75
2023-04-23T18:05:36.834Z,3.65
2023-04-23T18:08:44.330Z,4.03
2023-04-23T18:11:49.492Z,2.98
2023-04-23T18:14:55.719Z,3.33
2023-04-23T18:18:03.702Z,3.40
2023-04-23T18:21:09.096Z,3.55
2023-04-23T18:24:16.312Z,3.87
2023-04-23T18:27:22.787Z,4.03
2023-04-23T18:30:30.159Z,3.80
2023-04-23T18:33:42.104Z,3.75
2023-04-23T18:36:51.117Z,4.37
2023-04-23T18:39:56.414Z,4.70
2023-04-23T18:43:01.697Z,4.83
2023-04-23T18:46:08.403Z,4.15
2023-04-23T18:49:55.614Z,3.47
2023-04-23T18:53:02.616Z,3.58
2023-04-23T18:56:10.203Z,4.30
2023-04-23T18:59:15.749Z,4.28
2023-04-23T19:02:34.521Z,3.80
2023-04-23T19:05:27.469Z,4.25
2023-04-23T19:08:34.824Z,3.83
2023-04-23T19:11:44.990Z,4.45
2023-04-23T19:14:50.486Z,4.03
2023-04-23T19:17:56.557Z,5.35
2023-04-23T19:21:03.030Z,5.12
2023-04-23T19:24:08.903Z,4.87
2023-04-23T19:27:14.352Z,8.53
2023-04-23T19:30:23.015Z,6.05
2023-04-23T19:33:28.445Z,6.97
2023-04-23T19:36:33.919Z,7.22
2023-04-23T19:39:40.356Z,4.75
2023-04-23T19:42:46.518Z,5.60
2023-04-23T19:45:53.321Z,4.95
2023-04-23T19:48:58.961Z,6.10
2023-04-23T19:52:06.457Z,7.12
2023-04-23T19:55:11.812Z,6.72
2023-04-23T19:58:16.669Z,6.00
2023-04-23T20:01:22.735Z,7.83
2023-04-23T20:04:29.269Z,8.83
2023-04-23T20:07:35.412Z,12.45
2023-04-23T20:10:40.639Z,10.93
2023-04-23T20:13:46.049Z,10.32
2023-04-23T20:16:53.732Z,7.30
2023-04-23T20:20:00.969Z,7.10
2023-04-23T20:23:07.566Z,6.97
2023-04-23T20:26:14.786Z,6.90
2023-04-23T20:29:20.450Z,7.87
2023-04-23T20:32:25.758Z,7.55
2023-04-23T20:35:30.915Z,6.75
2023-04-23T20:38:37.431Z,5.12
2023-04-23T20:41:45.060Z,27.15
2023-04-23T20:44:52.370Z,21.62
2023-04-23T20:47:58.385Z,17.45
2023-04-23T20:51:03.970Z,6.08
2023-04-23T20:54:09.557Z,7.95
2023-04-23T20:57:15.908Z,13.45
2023-04-23T21:00:22.208Z,12.50
2023-04-23T21:03:27.502Z,10.60
2023-04-23T21:06:34.579Z,7.72
2023-04-23T21:09:41.428Z,6.97
2023-04-23T21:12:49.417Z,7.53
2023-04-23T21:15:55.245Z,6.00
2023-04-23T21:19:01.144Z,5.75
2023-04-23T21:22:06.123Z,4.78
2023-04-23T21:25:12.078Z,4.95
2023-04-23T21:28:17.969Z,5.58
2023-04-23T21:31:28.755Z,5.80
2023-04-23T21:37:40.314Z,5.40
2023-04-23T21:40:48.069Z,5.47
2023-04-23T21:43:53.992Z,5.28
2023-04-23T21:47:00.257Z,5.60
2023-04-23T21:50:07.704Z,5.53
2023-04-23T21:53:13.808Z,5.58
2023-04-23T21:56:19.393Z,6.90
2023-04-23T21:59:26.436Z,7.20
2023-04-23T22:02:32.293Z,7.12
2023-04-23T22:05:37.916Z,6.17
2023-04-23T22:08:46.576Z,6.95
2023-04-23T22:12:01.908Z,6.65
2023-04-23T22:15:00.960Z,6.85
2023-04-23T22:18:07.562Z,6.62
2023-04-23T22:21:13.717Z,7.00
2023-04-23T22:24:18.978Z,5.60
2023-04-23T22:27:24.638Z,6.17
2023-04-23T22:30:30.280Z,6.17
2023-04-23T22:33:37.244Z,7.08
2023-04-23T22:36:42.306Z,7.00
2023-04-23T22:39:47.477Z,5.53
2023-04-23T22:42:54.433Z,6.12
2023-04-23T22:46:01.001Z,8.65
2023-04-23T22:49:07.837Z,5.92
2023-04-23T22:52:15.566Z,7.28
2023-04-23T22:55:22.152Z,6.80
2023-04-23T22:58:28.290Z,7.03
2023-04-23T23:01:33.408Z,7.42
2023-04-23T23:04:39.362Z,6.53
2023-04-23T23:07:45.576Z,6.25
2023-04-23T23:10:50.762Z,6.92
2023-04-23T23:13:55.865Z,6.58
2023-04-23T23:17:01.077Z,6.40
2023-04-23T23:20:06.538Z,6.90
2023-04-23T23:23:13.013Z,6.42
2023-04-23T23:26:19.626Z,6.92
2023-04-23T23:29:25.514Z,6.53
2023-04-23T23:32:25.359Z,6.42
2023-04-23T23:35:31.368Z,7.85
2023-04-23T23:38:29.627Z,6.97
2023-04-23T23:41:34.948Z,7.47
2023-04-23T23:44:40.942Z,7.72
2023-04-23T23:47:46.632Z,7.85
2023-04-23T23:50:52.846Z,6.92
2023-04-23T23:53:59.777Z,7.30
2023-04-23T23:57:06.622Z,7.30
